CheckWX is a tool to help pilots better visualize weather data.  It is not intended as a substitute for an official pre-flight weather briefing.

18:16:58 UTC

KGPH METAR
Midwest National Air Center Airport
Mosby, Missouri, USA
Current

22 mins ago

KGPH 261755Z AUTO 16009G15KT 10SM BKN017 BKN030 OVC047 22/20 A2974 RMK AO2
Observed
May-26 @ 17:55 UTC
Wind
  • 160° at 9 KTS
  • Gusting to 15 KTS
Visibility
Flight Rules
MVFR
Cloud Levels
  • Broken at 1,700' AGL
  • Broken at 3,000' AGL
  • Overcast at 4,700' AGL
Temperature
22°C / 72°F
Dewpoint
20°C / 68°F
Humidity
88%
Altimeter
29.74" Hg
Pressure
1007.12 hPa
Previous

42 mins ago

KGPH 261735Z AUTO 15010G16KT 10SM SCT014 BKN022 OVC029 22/20 A2974 RMK AO2
Observed
May-26 @ 17:35 UTC
Wind
  • 150° at 10 KTS
  • Gusting to 16 KTS
Visibility
Flight Rules
MVFR
Cloud Levels
  • Scattered at 1,400' AGL
  • Broken at 2,200' AGL
  • Overcast at 2,900' AGL
Temperature
22°C / 72°F
Dewpoint
20°C / 68°F
Humidity
88%
Altimeter
29.74" Hg
Pressure
1007.12 hPa
Previous

1 hour ago

KGPH 261715Z AUTO 17006KT 7SM -DZ SCT004 BKN020 OVC033 21/20 A2974 RMK AO2
Observed
May-26 @ 17:15 UTC
Wind
  • 170° at 6 KTS
Visibility
Flight Rules
MVFR
Conditions
Light Drizzle
Cloud Levels
  • Scattered at 400' AGL
  • Broken at 2,000' AGL
  • Overcast at 3,300' AGL
Temperature
21°C / 70°F
Dewpoint
20°C / 68°F
Humidity
94%
Altimeter
29.74" Hg
Pressure
1007.12 hPa